sensor_id;sensor_type;location;lat;lon;timestamp;pressure;altitude;pressure_sealevel;temperature;humidity
80321;BME280;69633;47.066;15.450;2023-12-14T00:00:17;96419.91;;;6.40;86.01
80321;BME280;69633;47.066;15.450;2023-12-14T00:02:43;96420.13;;;6.35;85.59
80321;BME280;69633;47.066;15.450;2023-12-14T00:05:09;96435.47;;;6.20;86.29
80321;BME280;69633;47.066;15.450;2023-12-14T00:07:34;96432.59;;;6.13;86.47
80321;BME280;69633;47.066;15.450;2023-12-14T00:10:00;96437.19;;;6.04;86.59
80321;BME280;69633;47.066;15.450;2023-12-14T00:12:25;96443.75;;;5.98;87.42
80321;BME280;69633;47.066;15.450;2023-12-14T00:14:51;96436.94;;;5.97;87.63
80321;BME280;69633;47.066;15.450;2023-12-14T00:17:16;96441.91;;;5.99;87.98
80321;BME280;69633;47.066;15.450;2023-12-14T00:19:42;96442.03;;;6.02;87.66
80321;BME280;69633;47.066;15.450;2023-12-14T00:22:07;96447.31;;;6.14;87.30
80321;BME280;69633;47.066;15.450;2023-12-14T00:24:33;96442.50;;;6.16;87.50
80321;BME280;69633;47.066;15.450;2023-12-14T00:26:58;96451.94;;;6.17;87.38
80321;BME280;69633;47.066;15.450;2023-12-14T00:29:24;96448.22;;;6.18;87.02
80321;BME280;69633;47.066;15.450;2023-12-14T00:31:49;96454.59;;;6.29;87.14
80321;BME280;69633;47.066;15.450;2023-12-14T00:34:14;96448.88;;;6.27;86.54
80321;BME280;69633;47.066;15.450;2023-12-14T00:36:40;96457.44;;;6.24;87.19
80321;BME280;69633;47.066;15.450;2023-12-14T00:39:05;96456.97;;;6.10;87.31
80321;BME280;69633;47.066;15.450;2023-12-14T00:41:31;96456.50;;;6.08;87.55
80321;BME280;69633;47.066;15.450;2023-12-14T00:43:56;96457.63;;;6.07;87.37
80321;BME280;69633;47.066;15.450;2023-12-14T00:46:21;96459.91;;;6.09;87.60
80321;BME280;69633;47.066;15.450;2023-12-14T00:48:47;96467.94;;;6.12;87.19
80321;BME280;69633;47.066;15.450;2023-12-14T00:51:12;96466.63;;;6.06;87.39
80321;BME280;69633;47.066;15.450;2023-12-14T00:53:38;96463.97;;;6.06;87.47
80321;BME280;69633;47.066;15.450;2023-12-14T00:56:03;96462.91;;;6.07;87.80
80321;BME280;69633;47.066;15.450;2023-12-14T00:58:29;96467.63;;;6.14;87.65
80321;BME280;69633;47.066;15.450;2023-12-14T01:00:54;96478.19;;;6.26;87.19
80321;BME280;69633;47.066;15.450;2023-12-14T01:03:20;96471.94;;;6.30;86.76
80321;BME280;69633;47.066;15.450;2023-12-14T01:05:46;96479.06;;;6.30;86.99
80321;BME280;69633;47.066;15.450;2023-12-14T01:08:11;96476.19;;;6.23;86.77
80321;BME280;69633;47.066;15.450;2023-12-14T01:10:36;96484.31;;;6.18;86.59
80321;BME280;69633;47.066;15.450;2023-12-14T01:13:02;96480.22;;;6.08;87.28
80321;BME280;69633;47.066;15.450;2023-12-14T01:15:28;96479.53;;;5.99;86.95
80321;BME280;69633;47.066;15.450;2023-12-14T01:17:54;96476.69;;;5.92;87.35
80321;BME280;69633;47.066;15.450;2023-12-14T01:20:19;96473.56;;;5.90;88.10
80321;BME280;69633;47.066;15.450;2023-12-14T01:22:45;96481.94;;;5.92;88.36
80321;BME280;69633;47.066;15.450;2023-12-14T01:25:10;96481.78;;;5.89;88.03
80321;BME280;69633;47.066;15.450;2023-12-14T01:27:36;96483.91;;;5.95;87.54
80321;BME280;69633;47.066;15.450;2023-12-14T01:30:01;96496.56;;;6.02;87.85
80321;BME280;69633;47.066;15.450;2023-12-14T01:32:26;96495.16;;;6.16;88.11
80321;BME280;69633;47.066;15.450;2023-12-14T01:34:52;96497.38;;;6.26;88.48
80321;BME280;69633;47.066;15.450;2023-12-14T01:37:17;96497.41;;;6.39;88.36
80321;BME280;69633;47.066;15.450;2023-12-14T01:39:43;96489.31;;;6.44;86.45
80321;BME280;69633;47.066;15.450;2023-12-14T01:42:08;96495.63;;;6.30;86.07
80321;BME280;69633;47.066;15.450;2023-12-14T01:44:34;96498.94;;;6.27;86.76
80321;BME280;69633;47.066;15.450;2023-12-14T01:46:59;96499.59;;;6.24;86.99
80321;BME280;69633;47.066;15.450;2023-12-14T01:49:24;96504.09;;;6.24;86.57
80321;BME280;69633;47.066;15.450;2023-12-14T01:51:50;96503.97;;;6.20;86.31
80321;BME280;69633;47.066;15.450;2023-12-14T01:54:15;96503.84;;;6.17;86.85
80321;BME280;69633;47.066;15.450;2023-12-14T01:56:41;96503.84;;;6.17;86.88
80321;BME280;69633;47.066;15.450;2023-12-14T01:59:06;96508.03;;;6.18;87.22
80321;BME280;69633;47.066;15.450;2023-12-14T02:01:39;96517.34;;;6.15;86.75
80321;BME280;69633;47.066;15.450;2023-12-14T02:04:06;96518.09;;;6.16;87.19
80321;BME280;69633;47.066;15.450;2023-12-14T02:06:32;96523.72;;;6.26;87.59
80321;BME280;69633;47.066;15.450;2023-12-14T02:08:58;96520.72;;;6.37;86.67
80321;BME280;69633;47.066;15.450;2023-12-14T02:11:23;96527.72;;;6.32;86.73
80321;BME280;69633;47.066;15.450;2023-12-14T02:13:48;96522.44;;;6.32;87.18
80321;BME280;69633;47.066;15.450;2023-12-14T02:16:14;96529.38;;;6.37;86.53
80321;BME280;69633;47.066;15.450;2023-12-14T02:18:40;96521.56;;;6.28;86.67
80321;BME280;69633;47.066;15.450;2023-12-14T02:21:05;96530.75;;;6.22;86.57
80321;BME280;69633;47.066;15.450;2023-12-14T02:23:31;96535.38;;;6.25;87.63
80321;BME280;69633;47.066;15.450;2023-12-14T02:25:56;96543.91;;;6.22;87.00
80321;BME280;69633;47.066;15.450;2023-12-14T02:28:22;96552.81;;;6.18;87.56
80321;BME280;69633;47.066;15.450;2023-12-14T02:30:47;96553.84;;;6.25;87.11
80321;BME280;69633;47.066;15.450;2023-12-14T02:33:13;96550.72;;;6.23;87.41
80321;BME280;69633;47.066;15.450;2023-12-14T02:35:38;96550.19;;;6.30;86.87
80321;BME280;69633;47.066;15.450;2023-12-14T02:38:04;96543.66;;;6.36;87.47
80321;BME280;69633;47.066;15.450;2023-12-14T02:40:29;96542.78;;;6.44;87.09
80321;BME280;69633;47.066;15.450;2023-12-14T02:42:55;96552.34;;;6.49;86.55
80321;BME280;69633;47.066;15.450;2023-12-14T02:45:20;96561.38;;;6.48;86.31
80321;BME280;69633;47.066;15.450;2023-12-14T02:47:46;96552.69;;;6.47;86.09
80321;BME280;69633;47.066;15.450;2023-12-14T02:50:13;96555.66;;;6.58;85.81
80321;BME280;69633;47.066;15.450;2023-12-14T02:52:38;96555.88;;;6.53;85.96
80321;BME280;69633;47.066;15.450;2023-12-14T02:55:04;96556.28;;;6.43;86.17
80321;BME280;69633;47.066;15.450;2023-12-14T02:57:30;96557.13;;;6.35;86.26
80321;BME280;69633;47.066;15.450;2023-12-14T02:59:55;96563.06;;;6.31;86.73
80321;BME280;69633;47.066;15.450;2023-12-14T03:02:20;96566.53;;;6.23;86.67
80321;BME280;69633;47.066;15.450;2023-12-14T03:04:46;96562.81;;;6.24;86.88
80321;BME280;69633;47.066;15.450;2023-12-14T03:07:11;96574.25;;;6.28;86.78
80321;BME280;69633;47.066;15.450;2023-12-14T03:09:39;96577.44;;;6.34;86.65
80321;BME280;69633;47.066;15.450;2023-12-14T03:12:10;96577.78;;;6.32;86.84
80321;BME280;69633;47.066;15.450;2023-12-14T03:14:35;96584.25;;;6.35;86.42
80321;BME280;69633;47.066;15.450;2023-12-14T03:17:01;96573.59;;;6.31;86.78
80321;BME280;69633;47.066;15.450;2023-12-14T03:19:28;96579.34;;;6.34;87.15
80321;BME280;69633;47.066;15.450;2023-12-14T03:21:53;96585.94;;;6.40;86.80
80321;BME280;69633;47.066;15.450;2023-12-14T03:24:18;96578.91;;;6.44;86.27
80321;BME280;69633;47.066;15.450;2023-12-14T03:26:44;96583.97;;;6.49;86.53
80321;BME280;69633;47.066;15.450;2023-12-14T03:29:09;96583.09;;;6.45;86.53
80321;BME280;69633;47.066;15.450;2023-12-14T03:31:35;96588.16;;;6.50;86.71
80321;BME280;69633;47.066;15.450;2023-12-14T03:34:01;96589.63;;;6.59;86.87
80321;BME280;69633;47.066;15.450;2023-12-14T03:36:26;96585.38;;;6.67;86.45
80321;BME280;69633;47.066;15.450;2023-12-14T03:38:53;96591.53;;;6.71;86.32
80321;BME280;69633;47.066;15.450;2023-12-14T03:41:18;96589.56;;;6.80;87.53
80321;BME280;69633;47.066;15.450;2023-12-14T03:43:44;96594.28;;;6.74;85.70
80321;BME280;69633;47.066;15.450;2023-12-14T03:46:10;96600.53;;;6.70;85.90
80321;BME280;69633;47.066;15.450;2023-12-14T03:48:35;96602.81;;;6.71;85.28
80321;BME280;69633;47.066;15.450;2023-12-14T03:51:02;96596.13;;;6.74;85.47
80321;BME280;69633;47.066;15.450;2023-12-14T03:53:29;96603.41;;;6.77;85.43
80321;BME280;69633;47.066;15.450;2023-12-14T03:55:54;96605.22;;;6.64;85.30
80321;BME280;69633;47.066;15.450;2023-12-14T03:58:19;96610.84;;;6.63;85.40
80321;BME280;69633;47.066;15.450;2023-12-14T04:00:45;96617.38;;;6.57;85.27
80321;BME280;69633;47.066;15.450;2023-12-14T04:03:11;96618.69;;;6.51;85.49
80321;BME280;69633;47.066;15.450;2023-12-14T04:05:36;96620.88;;;6.49;85.82
80321;BME280;69633;47.066;15.450;2023-12-14T04:08:01;96622.50;;;6.41;85.82
80321;BME280;69633;47.066;15.450;2023-12-14T04:10:27;96618.84;;;6.34;86.33
80321;BME280;69633;47.066;15.450;2023-12-14T04:12:52;96621.81;;;6.32;85.86
80321;BME280;69633;47.066;15.450;2023-12-14T04:15:18;96635.63;;;6.29;85.86
80321;BME280;69633;47.066;15.450;2023-12-14T04:17:43;96634.09;;;6.28;86.13
80321;BME280;69633;47.066;15.450;2023-12-14T04:20:09;96630.66;;;6.27;86.06
80321;BME280;69633;47.066;15.450;2023-12-14T04:22:35;96646.22;;;6.20;86.30
80321;BME280;69633;47.066;15.450;2023-12-14T04:25:00;96647.91;;;6.25;86.46
80321;BME280;69633;47.066;15.450;2023-12-14T04:27:25;96650.41;;;6.21;85.26
80321;BME280;69633;47.066;15.450;2023-12-14T04:29:54;96645.06;;;6.09;85.76
80321;BME280;69633;47.066;15.450;2023-12-14T04:32:19;96652.91;;;5.97;86.35
80321;BME280;69633;47.066;15.450;2023-12-14T04:34:45;96662.66;;;5.97;86.61
80321;BME280;69633;47.066;15.450;2023-12-14T04:37:10;96652.47;;;5.95;86.60
80321;BME280;69633;47.066;15.450;2023-12-14T04:39:35;96659.25;;;5.96;86.97
80321;BME280;69633;47.066;15.450;2023-12-14T04:42:01;96668.81;;;6.01;86.86
80321;BME280;69633;47.066;15.450;2023-12-14T04:44:26;96669.59;;;6.01;87.02
80321;BME280;69633;47.066;15.450;2023-12-14T04:46:52;96670.69;;;6.00;87.50
80321;BME280;69633;47.066;15.450;2023-12-14T04:49:18;96676.28;;;5.99;87.18
80321;BME280;69633;47.066;15.450;2023-12-14T04:51:44;96681.56;;;5.99;87.28
80321;BME280;69633;47.066;15.450;2023-12-14T04:54:10;96676.41;;;6.02;87.08
80321;BME280;69633;47.066;15.450;2023-12-14T04:56:35;96677.19;;;6.03;86.93
80321;BME280;69633;47.066;15.450;2023-12-14T04:59:00;96684.31;;;6.02;86.34
80321;BME280;69633;47.066;15.450;2023-12-14T05:01:26;96691.72;;;6.09;87.93
80321;BME280;69633;47.066;15.450;2023-12-14T05:03:54;96696.47;;;6.15;87.66
80321;BME280;69633;47.066;15.450;2023-12-14T05:06:20;96693.53;;;6.17;87.14
80321;BME280;69633;47.066;15.450;2023-12-14T05:08:46;96701.28;;;6.13;86.89
80321;BME280;69633;47.066;15.450;2023-12-14T05:11:15;96699.19;;;6.07;86.92
80321;BME280;69633;47.066;15.450;2023-12-14T05:13:40;96707.75;;;5.95;86.81
80321;BME280;69633;47.066;15.450;2023-12-14T05:16:06;96708.84;;;5.85;87.26
80321;BME280;69633;47.066;15.450;2023-12-14T05:18:32;96710.88;;;5.89;87.25
80321;BME280;69633;47.066;15.450;2023-12-14T05:20:58;96717.19;;;5.96;86.87
80321;BME280;69633;47.066;15.450;2023-12-14T05:23:24;96713.59;;;6.01;87.52
80321;BME280;69633;47.066;15.450;2023-12-14T05:25:49;96721.84;;;5.99;87.20
80321;BME280;69633;47.066;15.450;2023-12-14T05:28:15;96722.91;;;5.98;87.07
80321;BME280;69633;47.066;15.450;2023-12-14T05:30:41;96735.44;;;6.01;87.89
80321;BME280;69633;47.066;15.450;2023-12-14T05:33:06;96739.91;;;6.09;86.96
80321;BME280;69633;47.066;15.450;2023-12-14T05:35:32;96736.97;;;6.11;86.83
80321;BME280;69633;47.066;15.450;2023-12-14T05:37:58;96740.16;;;6.16;87.67
80321;BME280;69633;47.066;15.450;2023-12-14T05:40:23;96742.22;;;6.11;86.79
80321;BME280;69633;47.066;15.450;2023-12-14T05:42:49;96746.38;;;6.12;86.43
80321;BME280;69633;47.066;15.450;2023-12-14T05:45:14;96752.13;;;6.14;86.62
80321;BME280;69633;47.066;15.450;2023-12-14T05:47:40;96747.75;;;6.18;86.17
80321;BME280;69633;47.066;15.450;2023-12-14T05:50:07;96745.44;;;6.16;86.83
80321;BME280;69633;47.066;15.450;2023-12-14T05:52:35;96755.81;;;6.21;86.77
80321;BME280;69633;47.066;15.450;2023-12-14T05:55:00;96763.38;;;6.23;86.07
80321;BME280;69633;47.066;15.450;2023-12-14T05:57:26;96756.88;;;6.20;87.01
80321;BME280;69633;47.066;15.450;2023-12-14T05:59:51;96764.47;;;6.22;86.86
80321;BME280;69633;47.066;15.450;2023-12-14T06:02:17;96762.28;;;6.24;86.80
80321;BME280;69633;47.066;15.450;2023-12-14T06:04:42;96758.06;;;6.31;87.61
80321;BME280;69633;47.066;15.450;2023-12-14T06:07:07;96768.16;;;6.29;86.56
80321;BME280;69633;47.066;15.450;2023-12-14T06:09:34;96763.00;;;6.33;86.81
80321;BME280;69633;47.066;15.450;2023-12-14T06:12:01;96772.31;;;6.30;86.55
80321;BME280;69633;47.066;15.450;2023-12-14T06:14:27;96775.59;;;6.27;85.96
80321;BME280;69633;47.066;15.450;2023-12-14T06:16:53;96774.94;;;6.30;86.44
80321;BME280;69633;47.066;15.450;2023-12-14T06:19:18;96780.75;;;6.15;86.40
80321;BME280;69633;47.066;15.450;2023-12-14T06:21:43;96787.31;;;6.09;86.87
80321;BME280;69633;47.066;15.450;2023-12-14T06:24:09;96788.09;;;6.10;87.32
80321;BME280;69633;47.066;15.450;2023-12-14T06:26:34;96790.25;;;6.08;87.08
80321;BME280;69633;47.066;15.450;2023-12-14T06:29:00;96791.31;;;6.15;87.64
80321;BME280;69633;47.066;15.450;2023-12-14T06:31:26;96798.75;;;6.13;87.45
80321;BME280;69633;47.066;15.450;2023-12-14T06:33:51;96798.91;;;6.17;87.51
80321;BME280;69633;47.066;15.450;2023-12-14T06:36:17;96809.34;;;6.34;86.53
80321;BME280;69633;47.066;15.450;2023-12-14T06:38:43;96821.28;;;6.31;85.92
80321;BME280;69633;47.066;15.450;2023-12-14T06:41:08;96815.13;;;6.27;86.28
80321;BME280;69633;47.066;15.450;2023-12-14T06:43:43;96814.81;;;6.29;86.43
80321;BME280;69633;47.066;15.450;2023-12-14T06:46:08;96818.69;;;6.23;86.63
80321;BME280;69633;47.066;15.450;2023-12-14T06:48:33;96820.84;;;6.29;88.04
80321;BME280;69633;47.066;15.450;2023-12-14T06:50:59;96823.19;;;6.22;86.54
80321;BME280;69633;47.066;15.450;2023-12-14T06:53:24;96830.81;;;6.15;86.53
80321;BME280;69633;47.066;15.450;2023-12-14T06:55:50;96827.09;;;6.16;87.27
80321;BME280;69633;47.066;15.450;2023-12-14T06:58:16;96835.28;;;6.23;87.59
80321;BME280;69633;47.066;15.450;2023-12-14T07:00:42;96837.09;;;6.31;86.70
80321;BME280;69633;47.066;15.450;2023-12-14T07:03:07;96835.81;;;6.38;85.86
80321;BME280;69633;47.066;15.450;2023-12-14T07:05:33;96843.56;;;6.43;85.38
80321;BME280;69633;47.066;15.450;2023-12-14T07:07:58;96853.47;;;6.46;85.63
80321;BME280;69633;47.066;15.450;2023-12-14T07:10:24;96843.25;;;6.44;85.43
80321;BME280;69633;47.066;15.450;2023-12-14T07:12:50;96851.28;;;6.48;85.95
80321;BME280;69633;47.066;15.450;2023-12-14T07:15:15;96850.97;;;6.49;85.77
80321;BME280;69633;47.066;15.450;2023-12-14T07:17:41;96861.19;;;6.51;85.58
80321;BME280;69633;47.066;15.450;2023-12-14T07:20:07;96860.72;;;6.49;85.57
80321;BME280;69633;47.066;15.450;2023-12-14T07:22:32;96868.03;;;6.52;85.34
80321;BME280;69633;47.066;15.450;2023-12-14T07:24:58;96874.22;;;6.56;85.51
80321;BME280;69633;47.066;15.450;2023-12-14T07:27:23;96872.91;;;6.62;85.13
80321;BME280;69633;47.066;15.450;2023-12-14T07:29:49;96872.28;;;6.65;85.25
80321;BME280;69633;47.066;15.450;2023-12-14T07:32:14;96880.38;;;6.60;85.06
80321;BME280;69633;47.066;15.450;2023-12-14T07:34:40;96874.34;;;6.59;84.88
80321;BME280;69633;47.066;15.450;2023-12-14T07:37:05;96883.97;;;6.55;85.06
80321;BME280;69633;47.066;15.450;2023-12-14T07:39:31;96883.19;;;6.55;85.07
80321;BME280;69633;47.066;15.450;2023-12-14T07:41:57;96893.25;;;6.61;85.08
80321;BME280;69633;47.066;15.450;2023-12-14T07:44:22;96896.78;;;6.65;85.90
80321;BME280;69633;47.066;15.450;2023-12-14T07:46:50;96896.47;;;6.67;85.55
80321;BME280;69633;47.066;15.450;2023-12-14T07:49:16;96889.47;;;6.71;85.23
80321;BME280;69633;47.066;15.450;2023-12-14T07:51:46;96891.22;;;6.67;84.80
80321;BME280;69633;47.066;15.450;2023-12-14T07:54:11;96900.34;;;6.69;84.58
80321;BME280;69633;47.066;15.450;2023-12-14T07:56:36;96900.34;;;6.69;85.25
80321;BME280;69633;47.066;15.450;2023-12-14T07:59:02;96902.78;;;6.74;84.94
80321;BME280;69633;47.066;15.450;2023-12-14T08:01:31;96900.47;;;6.73;84.78
80321;BME280;69633;47.066;15.450;2023-12-14T08:03:57;96892.50;;;6.82;84.90
80321;BME280;69633;47.066;15.450;2023-12-14T08:06:22;96903.72;;;6.78;84.30
80321;BME280;69633;47.066;15.450;2023-12-14T08:08:48;96909.72;;;6.79;84.87
80321;BME280;69633;47.066;15.450;2023-12-14T08:11:13;96912.97;;;6.85;85.10
80321;BME280;69633;47.066;15.450;2023-12-14T08:13:39;96920.38;;;6.91;85.34
80321;BME280;69633;47.066;15.450;2023-12-14T08:16:05;96915.97;;;7.04;84.68
80321;BME280;69633;47.066;15.450;2023-12-14T08:18:32;96923.19;;;7.15;83.82
80321;BME280;69633;47.066;15.450;2023-12-14T08:20:57;96927.44;;;7.28;84.08
80321;BME280;69633;47.066;15.450;2023-12-14T08:23:23;96928.72;;;7.43;83.53
80321;BME280;69633;47.066;15.450;2023-12-14T08:25:49;96930.38;;;7.48;82.04
80321;BME280;69633;47.066;15.450;2023-12-14T08:28:14;96934.91;;;7.47;81.81
80321;BME280;69633;47.066;15.450;2023-12-14T08:30:40;96937.00;;;7.54;82.75
80321;BME280;69633;47.066;15.450;2023-12-14T08:33:05;96943.28;;;7.49;81.96
80321;BME280;69633;47.066;15.450;2023-12-14T08:35:31;96945.78;;;7.46;82.08
80321;BME280;69633;47.066;15.450;2023-12-14T08:37:56;96946.47;;;7.55;81.96
80321;BME280;69633;47.066;15.450;2023-12-14T08:40:22;96948.69;;;7.53;81.88
80321;BME280;69633;47.066;15.450;2023-12-14T08:42:47;96953.97;;;7.53;81.68
80321;BME280;69633;47.066;15.450;2023-12-14T08:45:13;96954.94;;;7.48;81.84
80321;BME280;69633;47.066;15.450;2023-12-14T08:47:39;96958.34;;;7.49;82.66
80321;BME280;69633;47.066;15.450;2023-12-14T08:50:05;96967.09;;;7.61;82.22
80321;BME280;69633;47.066;15.450;2023-12-14T08:52:30;96968.97;;;7.40;82.82
80321;BME280;69633;47.066;15.450;2023-12-14T08:54:56;96974.28;;;7.32;83.09
80321;BME280;69633;47.066;15.450;2023-12-14T08:57:21;96979.69;;;7.35;83.29
80321;BME280;69633;47.066;15.450;2023-12-14T08:59:47;96980.88;;;7.46;83.19
80321;BME280;69633;47.066;15.450;2023-12-14T09:02:12;96981.84;;;7.62;83.25
80321;BME280;69633;47.066;15.450;2023-12-14T09:04:37;96982.34;;;7.76;82.04
80321;BME280;69633;47.066;15.450;2023-12-14T09:07:04;96987.56;;;7.85;81.78
80321;BME280;69633;47.066;15.450;2023-12-14T09:09:29;96994.59;;;7.81;81.47
80321;BME280;69633;47.066;15.450;2023-12-14T09:11:55;96986.00;;;7.84;82.13
80321;BME280;69633;47.066;15.450;2023-12-14T09:14:21;96988.72;;;7.96;82.07
80321;BME280;69633;47.066;15.450;2023-12-14T09:16:46;97001.69;;;7.89;81.21
80321;BME280;69633;47.066;15.450;2023-12-14T09:19:11;97004.66;;;7.67;81.62
80321;BME280;69633;47.066;15.450;2023-12-14T09:21:37;97004.00;;;7.70;81.42
80321;BME280;69633;47.066;15.450;2023-12-14T09:24:03;97006.72;;;7.82;81.77
80321;BME280;69633;47.066;15.450;2023-12-14T09:26:28;97002.75;;;7.88;81.90
80321;BME280;69633;47.066;15.450;2023-12-14T09:28:54;97005.78;;;7.99;81.10
80321;BME280;69633;47.066;15.450;2023-12-14T09:31:19;97011.66;;;8.04;80.72
80321;BME280;69633;47.066;15.450;2023-12-14T09:33:44;97005.94;;;8.14;81.43
80321;BME280;69633;47.066;15.450;2023-12-14T09:36:10;97016.53;;;8.14;81.23
80321;BME280;69633;47.066;15.450;2023-12-14T09:38:35;97019.16;;;8.14;80.67
80321;BME280;69633;47.066;15.450;2023-12-14T09:41:01;97022.47;;;8.32;80.50
80321;BME280;69633;47.066;15.450;2023-12-14T09:43:27;97027.09;;;8.35;80.62
80321;BME280;69633;47.066;15.450;2023-12-14T09:45:54;97028.38;;;8.29;79.77
80321;BME280;69633;47.066;15.450;2023-12-14T09:48:20;97021.47;;;8.37;79.63
80321;BME280;69633;47.066;15.450;2023-12-14T09:50:49;97024.34;;;8.44;80.02
80321;BME280;69633;47.066;15.450;2023-12-14T09:53:15;97025.84;;;8.53;79.48
80321;BME280;69633;47.066;15.450;2023-12-14T09:55:41;97021.09;;;8.59;79.61
80321;BME280;69633;47.066;15.450;2023-12-14T09:58:06;97022.84;;;8.55;79.21
80321;BME280;69633;47.066;15.450;2023-12-14T10:00:39;97029.13;;;8.50;78.70
80321;BME280;69633;47.066;15.450;2023-12-14T10:03:24;97035.56;;;8.73;78.85
80321;BME280;69633;47.066;15.450;2023-12-14T10:05:52;97041.84;;;8.69;78.64
80321;BME280;69633;47.066;15.450;2023-12-14T10:08:18;97042.13;;;8.55;78.88
80321;BME280;69633;47.066;15.450;2023-12-14T10:10:49;97045.59;;;8.68;78.02
80321;BME280;69633;47.066;15.450;2023-12-14T10:13:16;97034.56;;;8.78;78.00
80321;BME280;69633;47.066;15.450;2023-12-14T10:15:46;97035.50;;;8.94;77.71
80321;BME280;69633;47.066;15.450;2023-12-14T10:18:22;97030.88;;;9.03;77.09
80321;BME280;69633;47.066;15.450;2023-12-14T10:20:50;97024.81;;;9.03;77.37
80321;BME280;69633;47.066;15.450;2023-12-14T10:23:15;97027.44;;;9.03;76.51
80321;BME280;69633;47.066;15.450;2023-12-14T10:25:42;97044.09;;;8.91;76.79
80321;BME280;69633;47.066;15.450;2023-12-14T10:28:08;97036.56;;;8.93;76.35
80321;BME280;69633;47.066;15.450;2023-12-14T10:30:34;97045.88;;;8.99;76.94
80321;BME280;69633;47.066;15.450;2023-12-14T10:33:00;97043.56;;;9.10;76.90
80321;BME280;69633;47.066;15.450;2023-12-14T10:35:25;97047.31;;;9.21;76.58
80321;BME280;69633;47.066;15.450;2023-12-14T10:37:52;97051.06;;;9.20;77.11
80321;BME280;69633;47.066;15.450;2023-12-14T10:40:18;97045.41;;;9.34;77.31
80321;BME280;69633;47.066;15.450;2023-12-14T10:42:44;97053.56;;;9.53;76.89
80321;BME280;69633;47.066;15.450;2023-12-14T10:45:13;97044.94;;;9.68;76.82
80321;BME280;69633;47.066;15.450;2023-12-14T10:47:45;97050.09;;;9.89;76.38
80321;BME280;69633;47.066;15.450;2023-12-14T10:50:12;97045.28;;;10.18;75.01
80321;BME280;69633;47.066;15.450;2023-12-14T10:52:41;97049.84;;;10.34;73.20
80321;BME280;69633;47.066;15.450;2023-12-14T10:55:28;97048.84;;;10.38;72.05
80321;BME280;69633;47.066;15.450;2023-12-14T10:57:59;97050.28;;;10.36;72.65
80321;BME280;69633;47.066;15.450;2023-12-14T11:00:26;97057.00;;;10.45;71.09
80321;BME280;69633;47.066;15.450;2023-12-14T11:02:52;97057.78;;;10.61;71.20
80321;BME280;69633;47.066;15.450;2023-12-14T11:05:18;97060.03;;;10.75;71.06
80321;BME280;69633;47.066;15.450;2023-12-14T11:07:53;97064.44;;;10.83;70.95
80321;BME280;69633;47.066;15.450;2023-12-14T11:10:22;97066.56;;;10.78;70.09
80321;BME280;69633;47.066;15.450;2023-12-14T11:15:21;97067.66;;;10.77;70.75
80321;BME280;69633;47.066;15.450;2023-12-14T11:23:14;97068.97;;;11.30;68.35
80321;BME280;69633;47.066;15.450;2023-12-14T11:25:41;97060.03;;;11.38;68.92
80321;BME280;69633;47.066;15.450;2023-12-14T11:28:07;97065.53;;;11.45;68.31
80321;BME280;69633;47.066;15.450;2023-12-14T11:30:34;97057.22;;;11.31;68.08
80321;BME280;69633;47.066;15.450;2023-12-14T11:33:00;97055.25;;;11.28;68.91
80321;BME280;69633;47.066;15.450;2023-12-14T11:35:25;97064.34;;;11.27;69.05
80321;BME280;69633;47.066;15.450;2023-12-14T11:37:51;97065.63;;;11.33;68.87
80321;BME280;69633;47.066;15.450;2023-12-14T11:40:16;97062.28;;;11.36;68.89
80321;BME280;69633;47.066;15.450;2023-12-14T11:43:01;97067.50;;;11.32;68.65
80321;BME280;69633;47.066;15.450;2023-12-14T11:45:27;97065.88;;;11.28;68.10
80321;BME280;69633;47.066;15.450;2023-12-14T11:47:53;97062.28;;;11.36;67.77
80321;BME280;69633;47.066;15.450;2023-12-14T11:50:19;97065.53;;;11.45;67.99
80321;BME280;69633;47.066;15.450;2023-12-14T11:52:44;97073.75;;;11.40;67.82
80321;BME280;69633;47.066;15.450;2023-12-14T11:55:14;97070.19;;;11.17;69.37
80321;BME280;69633;47.066;15.450;2023-12-14T11:57:39;97073.00;;;11.24;69.95
80321;BME280;69633;47.066;15.450;2023-12-14T12:00:11;97077.09;;;11.21;70.49
80321;BME280;69633;47.066;15.450;2023-12-14T12:02:37;97069.66;;;11.11;70.94
80321;BME280;69633;47.066;15.450;2023-12-14T12:05:03;97065.81;;;11.24;70.76
80321;BME280;69633;47.066;15.450;2023-12-14T12:07:28;97073.34;;;11.22;69.89
80321;BME280;69633;47.066;15.450;2023-12-14T12:09:54;97064.84;;;11.32;67.61
80321;BME280;69633;47.066;15.450;2023-12-14T12:12:20;97065.19;;;11.31;67.82
80321;BME280;69633;47.066;15.450;2023-12-14T12:14:46;97074.88;;;11.23;68.52
80321;BME280;69633;47.066;15.450;2023-12-14T12:17:14;97069.16;;;11.05;67.24
80321;BME280;69633;47.066;15.450;2023-12-14T12:19:40;97073.59;;;10.86;64.60
80321;BME280;69633;47.066;15.450;2023-12-14T12:22:08;97070.56;;;10.87;65.62
80321;BME280;69633;47.066;15.450;2023-12-14T12:24:34;97080.09;;;10.88;63.91
80321;BME280;69633;47.066;15.450;2023-12-14T12:26:59;97081.41;;;10.94;63.52
80321;BME280;69633;47.066;15.450;2023-12-14T12:29:25;97083.44;;;11.01;62.14
80321;BME280;69633;47.066;15.450;2023-12-14T12:31:50;97080.94;;;10.92;61.74
80321;BME280;69633;47.066;15.450;2023-12-14T12:34:17;97085.75;;;11.02;61.12
80321;BME280;69633;47.066;15.450;2023-12-14T12:36:42;97089.03;;;11.27;59.56
80321;BME280;69633;47.066;15.450;2023-12-14T12:39:08;97087.38;;;11.54;59.48
80321;BME280;69633;47.066;15.450;2023-12-14T12:41:34;97077.91;;;11.88;58.30
80321;BME280;69633;47.066;15.450;2023-12-14T12:44:00;97084.81;;;11.92;58.45
80321;BME280;69633;47.066;15.450;2023-12-14T12:46:32;97086.63;;;12.42;55.65
80321;BME280;69633;47.066;15.450;2023-12-14T12:48:58;97092.25;;;12.79;55.85
80321;BME280;69633;47.066;15.450;2023-12-14T12:51:23;97092.47;;;13.35;54.57
80321;BME280;69633;47.066;15.450;2023-12-14T12:53:51;97084.16;;;13.63;53.09
80321;BME280;69633;47.066;15.450;2023-12-14T12:56:16;97095.16;;;13.88;54.16
80321;BME280;69633;47.066;15.450;2023-12-14T12:58:42;97094.53;;;14.24;52.63